BDS weather

Bocas De Satinga Airport
Bocas De Satinga, NariƱo Department, Colombia

Public forecast

Using degrees Celsius for public forecast. Weather courtesy of forecast.io.

Closest aviation weather report (METAR) to Bocas De Satinga Airport

Report is more than 6 hours old.

Closest report is Juan Casiano Airport, 28.3 nm (52.5 km) ENE. Retrieved 2019/12/03 11:00 UTC (7 months ago):

SKGP 031100Z VRB02KT 3000 RA BKN010 24/24 A2986

Closest aviation forecast (TAF) to Bocas De Satinga Airport

Forecast is more than 12 hours old.

Closest forecast is Teniente Coronel Luis a Mantilla Airport, 99.4 nm (184.2 km) SSE. Retrieved 2018/04/06 18:33 UTC (2 years ago):

TAF SPJC 061700Z 0618/0718 25008KT CAVOK TX26/0618Z TN18/0711ZLVA0883 061730 GG KWBCYMYX 061730 SEQUYZYX SPEQ SEQU 061728 SPECI SETU 061728Z 07006KT 9999 -TSRA FEW020CB BKN023 CB OVER STN